Time;durP1;ratioP1;P1;durP2;ratioP2;P2;SDS_P1;SDS_P2;PMS_P1;PMS_P2;Temp;Humidity;BMP_temperature;BMP_pressure;BME280_temperature;BME280_humidity;BME280_pressure;Samples;Min_cycle;Max_cycle;Signal;HPM_P1;HPM_P2
2024/04/01 00:00:28;;;;;;;;;49.25;22.25;;;;;;;;10464670;28;43103;-64
2024/04/01 00:05:33;;;;;;;;;36.00;18.25;;;;;;;;10465447;28;43803;-62
2024/04/01 00:10:38;;;;;;;;;35.25;16.75;;;;;;;;10460908;28;44355;-63
2024/04/01 00:15:41;;;;;;;;;47.00;23.00;;;;;;;;10473270;28;43230;-62
2024/04/01 00:20:54;;;;;;;;;39.75;19.00;;;;;;;;10451864;28;44572;-62
2024/04/01 00:25:58;;;;;;;;;38.75;19.50;;;;;;;;10449629;28;49634;-61
2024/04/01 00:31:02;;;;;;;;;38.25;18.50;;;;;;;;10469885;28;44101;-62
2024/04/01 00:36:05;;;;;;;;;37.50;18.50;;;;;;;;10457099;28;43076;-62
2024/04/01 00:41:09;;;;;;;;;35.75;17.25;;;;;;;;10457987;28;43762;-62
2024/04/01 00:46:13;;;;;;;;;31.00;18.00;;;;;;;;10455750;28;43083;-62
2024/04/01 00:51:18;;;;;;;;;35.00;17.75;;;;;;;;10455818;28;43343;-62
2024/04/01 00:56:23;;;;;;;;;28.25;15.25;;;;;;;;10458388;28;43561;-62
2024/04/01 01:01:27;;;;;;;;;29.50;12.75;;;;;;;;10451648;28;42947;-60
2024/04/01 01:06:31;;;;;;;;;28.75;15.25;;;;;;;;10438538;28;43750;-60
2024/04/01 01:11:34;;;;;;;;;34.50;15.50;;;;;;;;10453032;28;43958;-61
2024/04/01 01:16:38;;;;;;;;;38.25;20.50;;;;;;;;10455415;28;43770;-62
2024/04/01 01:21:42;;;;;;;;;47.25;26.50;;;;;;;;10458767;28;43319;-63
2024/04/01 01:26:46;;;;;;;;;32.00;16.75;;;;;;;;10458853;28;43510;-65
2024/04/01 01:31:50;;;;;;;;;41.75;22.00;;;;;;;;10434719;28;43012;-64
2024/04/01 01:36:54;;;;;;;;;45.00;20.75;;;;;;;;10432273;28;43131;-62
2024/04/01 01:41:57;;;;;;;;;47.50;26.50;;;;;;;;10458796;28;43377;-64
2024/04/01 01:47:01;;;;;;;;;57.25;34.00;;;;;;;;10451216;27;43276;-62
2024/04/01 01:52:04;;;;;;;;;49.00;28.75;;;;;;;;10447047;28;43270;-60
2024/04/01 01:57:08;;;;;;;;;51.00;28.25;;;;;;;;10456876;28;43088;-61
2024/04/01 02:02:12;;;;;;;;;49.00;23.25;;;;;;;;10449040;28;43032;-62
2024/04/01 02:07:16;;;;;;;;;48.50;25.50;;;;;;;;10459742;28;43052;-62
2024/04/01 02:12:21;;;;;;;;;50.00;22.50;;;;;;;;10451553;28;43640;-63
2024/04/01 02:17:25;;;;;;;;;52.00;25.25;;;;;;;;10446040;28;43012;-62
2024/04/01 02:22:29;;;;;;;;;44.75;25.50;;;;;;;;10428842;28;43302;-62
2024/04/01 02:27:32;;;;;;;;;44.50;25.50;;;;;;;;10430278;28;43141;-61
2024/04/01 02:32:37;;;;;;;;;49.25;24.75;;;;;;;;10436537;28;44263;-61
2024/04/01 02:37:40;;;;;;;;;41.25;25.00;;;;;;;;10457383;28;43775;-61
2024/04/01 02:42:44;;;;;;;;;49.75;24.00;;;;;;;;10448616;28;45789;-62
2024/04/01 02:47:47;;;;;;;;;40.50;21.75;;;;;;;;10460975;28;44168;-62
2024/04/01 02:52:51;;;;;;;;;51.00;29.00;;;;;;;;10454468;28;43752;-63
2024/04/01 02:57:56;;;;;;;;;53.00;28.25;;;;;;;;10456433;28;43066;-65
2024/04/01 03:02:59;;;;;;;;;51.25;32.25;;;;;;;;10454656;28;43334;-62
2024/04/01 03:08:02;;;;;;;;;46.75;24.50;;;;;;;;10458898;28;44064;-62
2024/04/01 03:13:07;;;;;;;;;54.50;30.00;;;;;;;;10454228;28;43757;-61
2024/04/01 03:18:12;;;;;;;;;51.75;27.50;;;;;;;;10457810;28;43604;-60
2024/04/01 03:23:16;;;;;;;;;38.75;25.00;;;;;;;;10455704;28;43275;-60
2024/04/01 03:28:20;;;;;;;;;45.25;19.75;;;;;;;;10454504;28;43029;-58
2024/04/01 03:33:23;;;;;;;;;46.25;27.00;;;;;;;;10396822;28;43815;-59
2024/04/01 03:38:27;;;;;;;;;53.75;32.50;;;;;;;;10385589;28;44562;-61
2024/04/01 03:43:31;;;;;;;;;49.50;29.00;;;;;;;;10385507;28;43600;-61
2024/04/01 03:48:34;;;;;;;;;48.50;28.25;;;;;;;;10383472;28;43841;-63
2024/04/01 03:53:37;;;;;;;;;49.25;31.25;;;;;;;;10381551;28;43260;-63
2024/04/01 03:58:41;;;;;;;;;50.75;28.25;;;;;;;;10370881;28;44517;-63
2024/04/01 04:03:45;;;;;;;;;48.50;26.50;;;;;;;;10397216;28;44186;-60
2024/04/01 04:08:49;;;;;;;;;45.00;23.50;;;;;;;;10394898;28;43521;-60
2024/04/01 04:13:54;;;;;;;;;42.50;21.25;;;;;;;;10400848;28;44853;-61
2024/04/01 04:18:58;;;;;;;;;39.25;20.50;;;;;;;;10385348;28;43500;-62
2024/04/01 04:24:01;;;;;;;;;46.00;18.25;;;;;;;;10391003;28;43339;-59
2024/04/01 04:29:04;;;;;;;;;35.00;16.50;;;;;;;;10397200;28;43837;-65
2024/04/01 04:34:09;;;;;;;;;40.00;16.00;;;;;;;;10382510;28;44269;-64
2024/04/01 04:39:19;;;;;;;;;39.75;19.00;;;;;;;;10396196;28;43739;-62
2024/04/01 04:44:23;;;;;;;;;43.75;23.00;;;;;;;;10397407;28;42947;-63
2024/04/01 04:49:28;;;;;;;;;47.25;24.00;;;;;;;;10391640;28;43127;-61
2024/04/01 04:54:31;;;;;;;;;36.25;16.25;;;;;;;;10393903;28;44049;-65
2024/04/01 04:59:35;;;;;;;;;38.25;16.75;;;;;;;;10391647;28;43069;-62
2024/04/01 05:04:38;;;;;;;;;39.25;19.75;;;;;;;;10392010;28;43912;-62
2024/04/01 05:09:41;;;;;;;;;37.75;17.00;;;;;;;;10377035;28;44424;-62
2024/04/01 05:14:45;;;;;;;;;32.25;17.25;;;;;;;;10395172;28;43682;-63
2024/04/01 05:19:48;;;;;;;;;44.00;20.50;;;;;;;;10391458;28;43067;-62
2024/04/01 05:24:54;;;;;;;;;39.75;20.00;;;;;;;;10372969;28;43089;-63
2024/04/01 05:30:05;;;;;;;;;37.00;17.75;;;;;;;;10390239;28;43565;-62
2024/04/01 05:35:07;;;;;;;;;36.75;19.75;;;;;;;;10429594;28;49308;-62
2024/04/01 05:40:12;;;;;;;;;32.00;18.75;;;;;;;;10428444;28;43003;-63
2024/04/01 05:45:15;;;;;;;;;36.75;16.00;;;;;;;;10428893;28;43610;-63
2024/04/01 05:50:19;;;;;;;;;35.50;19.50;;;;;;;;10429969;28;48455;-63
2024/04/01 05:55:22;;;;;;;;;32.25;14.75;;;;;;;;10436689;28;44619;-63
2024/04/01 06:00:26;;;;;;;;;40.75;18.00;;;;;;;;10429536;28;43039;-61
2024/04/01 06:05:29;;;;;;;;;33.75;17.50;;;;;;;;10431220;28;48569;-62
2024/04/01 06:10:36;;;;;;;;;41.50;17.25;;;;;;;;10429227;28;42985;-64
2024/04/01 06:15:39;;;;;;;;;32.50;14.75;;;;;;;;10431941;28;43096;-61
2024/04/01 06:20:43;;;;;;;;;37.25;14.50;;;;;;;;10433167;28;43794;-64
2024/04/01 06:25:49;;;;;;;;;33.50;18.50;;;;;;;;10431675;28;44092;-63
2024/04/01 06:30:52;;;;;;;;;40.50;22.00;;;;;;;;10448942;28;43798;-63
2024/04/01 06:35:59;;;;;;;;;42.25;23.25;;;;;;;;10462578;27;43252;-63
2024/04/01 06:41:05;;;;;;;;;47.50;24.00;;;;;;;;10453259;28;43933;-63
2024/04/01 06:46:08;;;;;;;;;41.25;17.25;;;;;;;;10463184;27;43302;-63
2024/04/01 06:51:11;;;;;;;;;36.75;19.25;;;;;;;;10452992;28;43005;-63
2024/04/01 06:56:16;;;;;;;;;37.00;17.00;;;;;;;;10455461;28;43727;-63
2024/04/01 07:01:20;;;;;;;;;37.75;16.25;;;;;;;;10459858;28;43181;-63
2024/04/01 07:06:24;;;;;;;;;36.25;16.50;;;;;;;;10457077;28;42950;-64
2024/04/01 07:11:28;;;;;;;;;34.50;18.75;;;;;;;;10446241;28;45008;-64
2024/04/01 07:16:31;;;;;;;;;38.00;19.75;;;;;;;;10463870;28;43280;-64
2024/04/01 07:21:35;;;;;;;;;39.25;20.75;;;;;;;;10463291;28;44117;-63
2024/04/01 07:26:38;;;;;;;;;37.75;17.75;;;;;;;;10462017;28;43422;-62
2024/04/01 07:31:42;;;;;;;;;32.25;18.00;;;;;;;;10453458;28;43157;-63
2024/04/01 07:36:46;;;;;;;;;43.00;19.25;;;;;;;;10479617;28;43246;-63
2024/04/01 07:41:50;;;;;;;;;38.75;17.75;;;;;;;;10503164;27;42941;-62
2024/04/01 07:46:53;;;;;;;;;36.50;17.25;;;;;;;;10500912;28;45013;-63
2024/04/01 07:51:56;;;;;;;;;36.25;21.75;;;;;;;;10500728;28;42991;-63
2024/04/01 07:57:02;;;;;;;;;36.50;21.00;;;;;;;;10474419;28;42977;-63
2024/04/01 08:02:06;;;;;;;;;38.25;22.75;;;;;;;;10457221;28;43953;-64
2024/04/01 08:07:09;;;;;;;;;43.75;20.25;;;;;;;;10457567;28;44148;-62
2024/04/01 08:12:13;;;;;;;;;37.75;18.25;;;;;;;;10460343;28;43704;-61
2024/04/01 08:17:17;;;;;;;;;36.25;18.50;;;;;;;;10460555;28;43666;-65
2024/04/01 08:22:20;;;;;;;;;35.00;19.00;;;;;;;;10459140;28;43049;-62
2024/04/01 08:27:24;;;;;;;;;34.00;17.50;;;;;;;;10468760;28;42962;-60
2024/04/01 08:32:27;;;;;;;;;39.50;16.50;;;;;;;;10468443;28;42986;-64
2024/04/01 08:37:30;;;;;;;;;37.50;16.75;;;;;;;;10462064;28;43071;-64
2024/04/01 08:42:34;;;;;;;;;43.25;21.00;;;;;;;;10460688;28;43116;-61
2024/04/01 08:47:40;;;;;;;;;36.25;17.25;;;;;;;;10462637;27;48610;-61
2024/04/01 08:52:57;;;;;;;;;35.75;12.00;;;;;;;;10457714;28;43001;-62
2024/04/01 08:58:01;;;;;;;;;33.50;13.50;;;;;;;;10437664;28;43668;-62
2024/04/01 09:03:05;;;;;;;;;35.75;13.00;;;;;;;;10436156;28;43240;-61
2024/04/01 09:08:08;;;;;;;;;32.75;12.75;;;;;;;;10437146;28;44178;-62
2024/04/01 09:13:13;;;;;;;;;36.50;17.00;;;;;;;;10439976;28;43915;-63
2024/04/01 09:18:16;;;;;;;;;40.50;14.75;;;;;;;;10455373;28;43139;-62
2024/04/01 09:23:21;;;;;;;;;39.50;14.00;;;;;;;;10453151;28;43655;-62
2024/04/01 09:28:24;;;;;;;;;33.50;17.00;;;;;;;;10459555;27;43042;-63
2024/04/01 09:33:29;;;;;;;;;44.75;18.25;;;;;;;;10425675;28;43518;-61
2024/04/01 09:38:35;;;;;;;;;59.00;33.00;;;;;;;;10394573;28;43252;-61
2024/04/01 09:43:38;;;;;;;;;54.00;28.00;;;;;;;;10395836;28;43056;-63
2024/04/01 09:48:43;;;;;;;;;58.25;31.50;;;;;;;;10388946;28;43743;-64
2024/04/01 09:53:48;;;;;;;;;56.25;30.25;;;;;;;;10412731;28;44052;-65
2024/04/01 09:59:09;;;;;;;;;60.25;29.50;;;;;;;;10395527;28;42913;-65
2024/04/01 10:04:14;;;;;;;;;55.50;29.25;;;;;;;;10381537;28;44282;-63
2024/04/01 10:09:20;;;;;;;;;48.50;27.25;;;;;;;;10414811;28;43779;-64
2024/04/01 10:14:42;;;;;;;;;48.75;27.25;;;;;;;;10397480;28;43040;-65
2024/04/01 10:19:57;;;;;;;;;48.75;20.25;;;;;;;;10420276;28;43753;-63
2024/04/01 10:25:17;;;;;;;;;46.00;18.25;;;;;;;;10392914;28;43307;-65
2024/04/01 10:30:49;;;;;;;;;41.50;20.50;;;;;;;;10419155;28;49516;-63
2024/04/01 10:36:02;;;;;;;;;42.75;21.25;;;;;;;;10386414;28;48676;-65
2024/04/01 10:41:14;;;;;;;;;33.75;15.50;;;;;;;;10389459;28;49217;-65
2024/04/01 10:46:43;;;;;;;;;39.25;17.50;;;;;;;;10391568;28;43117;-63
2024/04/01 10:52:08;;;;;;;;;40.25;20.00;;;;;;;;10389488;28;43577;-66
2024/04/01 10:57:12;;;;;;;;;46.50;16.25;;;;;;;;10384605;28;43234;-66
2024/04/01 11:02:33;;;;;;;;;56.25;26.50;;;;;;;;10386175;28;42986;-61
2024/04/01 11:07:50;;;;;;;;;58.50;31.75;;;;;;;;10385910;28;43799;-62
2024/04/01 11:13:03;;;;;;;;;57.25;33.00;;;;;;;;10367472;28;44092;-62
2024/04/01 11:18:16;;;;;;;;;61.50;32.25;;;;;;;;10386194;28;43004;-61
2024/04/01 11:23:22;;;;;;;;;57.50;32.75;;;;;;;;10387740;28;43728;-62
2024/04/01 11:28:44;;;;;;;;;57.75;29.00;;;;;;;;10386519;28;42954;-63
2024/04/01 11:33:52;;;;;;;;;62.75;33.00;;;;;;;;10398207;28;43080;-61
2024/04/01 11:39:16;;;;;;;;;55.50;32.25;;;;;;;;10381988;28;43270;-63
2024/04/01 11:44:21;;;;;;;;;52.75;31.50;;;;;;;;10393375;28;43753;-61
2024/04/01 11:49:23;;;;;;;;;60.25;35.25;;;;;;;;10386034;28;43346;-62
2024/04/01 11:54:26;;;;;;;;;48.75;26.25;;;;;;;;10384604;28;43611;-61
2024/04/01 11:59:30;;;;;;;;;49.50;26.75;;;;;;;;10393791;28;43014;-63
2024/04/01 12:04:32;;;;;;;;;45.75;21.75;;;;;;;;10362670;28;44674;-64
2024/04/01 12:09:35;;;;;;;;;50.50;25.00;;;;;;;;10402489;28;43667;-64
2024/04/01 12:14:38;;;;;;;;;47.25;21.50;;;;;;;;10377224;28;43994;-64
2024/04/01 12:19:41;;;;;;;;;45.75;23.25;;;;;;;;10376926;28;43042;-65
2024/04/01 12:24:43;;;;;;;;;47.25;18.75;;;;;;;;10390593;28;49388;-64
2024/04/01 12:29:45;;;;;;;;;46.00;16.50;;;;;;;;10398546;28;44042;-64
2024/04/01 12:34:48;;;;;;;;;37.50;14.75;;;;;;;;10373832;28;43488;-64
2024/04/01 12:39:52;;;;;;;;;38.75;15.00;;;;;;;;10374793;28;43755;-64
2024/04/01 12:44:54;;;;;;;;;37.25;16.25;;;;;;;;10390499;28;44373;-64
2024/04/01 12:50:22;;;;;;;;;46.00;18.75;;;;;;;;10385659;28;43077;-64
2024/04/01 12:55:27;;;;;;;;;37.00;13.75;;;;;;;;10385975;28;48645;-64
2024/04/01 13:00:30;;;;;;;;;40.25;14.75;;;;;;;;10390096;28;48521;-64
2024/04/01 13:05:44;;;;;;;;;33.50;12.00;;;;;;;;10390980;28;43779;-64
2024/04/01 13:10:55;;;;;;;;;40.75;15.50;;;;;;;;10391712;28;49596;-64
2024/04/01 13:16:17;;;;;;;;;35.25;11.75;;;;;;;;10392887;28;48430;-65
2024/04/01 13:21:20;;;;;;;;;37.25;9.75;;;;;;;;10390816;28;49309;-65
2024/04/01 13:26:29;;;;;;;;;37.50;10.00;;;;;;;;10391710;28;42951;-65
2024/04/01 13:31:34;;;;;;;;;32.25;12.25;;;;;;;;10413564;28;43512;-63
2024/04/01 13:36:53;;;;;;;;;29.50;7.50;;;;;;;;10439227;28;43082;-61
2024/04/01 13:42:13;;;;;;;;;28.75;10.00;;;;;;;;10467300;28;43230;-63
2024/04/01 13:47:22;;;;;;;;;28.50;8.25;;;;;;;;10440001;28;43492;-62
2024/04/01 13:52:25;;;;;;;;;29.50;11.25;;;;;;;;10456241;28;42938;-62
2024/04/01 13:57:55;;;;;;;;;34.75;9.50;;;;;;;;10462652;28;43807;-62
2024/04/01 14:02:58;;;;;;;;;26.25;9.75;;;;;;;;10460829;28;43201;-62
2024/04/01 14:08:15;;;;;;;;;27.75;9.00;;;;;;;;10497396;28;43145;-62
2024/04/01 14:13:29;;;;;;;;;26.25;9.50;;;;;;;;10492957;28;43381;-63
2024/04/01 14:18:44;;;;;;;;;22.50;6.50;;;;;;;;10500159;28;43107;-62
2024/04/01 14:23:47;;;;;;;;;26.50;9.00;;;;;;;;10486692;28;43255;-62
2024/04/01 14:28:51;;;;;;;;;26.75;8.25;;;;;;;;10446910;28;44404;-62
2024/04/01 14:33:55;;;;;;;;;32.50;13.00;;;;;;;;10411270;28;43410;-62
2024/04/01 14:38:59;;;;;;;;;27.00;11.25;;;;;;;;10402600;28;43251;-62
2024/04/01 14:44:03;;;;;;;;;30.75;10.25;;;;;;;;10399217;28;42994;-61
2024/04/01 14:49:06;;;;;;;;;30.50;9.00;;;;;;;;10411293;28;43009;-62
2024/04/01 14:54:09;;;;;;;;;27.75;8.50;;;;;;;;10403059;28;42973;-62
2024/04/01 14:59:13;;;;;;;;;31.50;10.75;;;;;;;;10371084;28;44537;-62
2024/04/01 15:04:16;;;;;;;;;26.50;9.50;;;;;;;;10396968;28;43847;-62
2024/04/01 15:09:19;;;;;;;;;24.00;9.00;;;;;;;;10381110;28;43319;-62
2024/04/01 15:14:23;;;;;;;;;37.25;12.50;;;;;;;;10392851;28;43085;-62
2024/04/01 15:19:27;;;;;;;;;25.25;9.75;;;;;;;;10391207;28;42981;-63
2024/04/01 15:24:30;;;;;;;;;27.00;9.75;;;;;;;;10391890;28;43406;-62
2024/04/01 15:29:36;;;;;;;;;31.75;8.50;;;;;;;;10399902;28;43169;-62
2024/04/01 15:34:40;;;;;;;;;26.75;8.50;;;;;;;;10376730;28;43258;-62
2024/04/01 15:39:44;;;;;;;;;27.25;12.75;;;;;;;;10387414;28;45443;-62
2024/04/01 15:44:47;;;;;;;;;27.00;10.00;;;;;;;;10389403;28;43654;-63
2024/04/01 15:49:51;;;;;;;;;31.25;11.25;;;;;;;;10409268;28;43596;-62
2024/04/01 15:54:57;;;;;;;;;24.00;10.00;;;;;;;;10426364;28;43235;-62
2024/04/01 16:00:01;;;;;;;;;22.00;9.25;;;;;;;;10434100;28;43464;-62
2024/04/01 16:05:14;;;;;;;;;26.00;8.50;;;;;;;;10428073;28;48588;-62
2024/04/01 16:10:21;;;;;;;;;24.25;9.00;;;;;;;;10427252;28;50169;-62
2024/04/01 16:15:30;;;;;;;;;28.25;10.00;;;;;;;;10432735;28;49151;-63
2024/04/01 16:20:36;;;;;;;;;32.00;13.75;;;;;;;;10427901;28;48404;-63
2024/04/01 16:25:40;;;;;;;;;28.00;10.00;;;;;;;;10390750;28;49410;-63
2024/04/01 16:30:50;;;;;;;;;23.50;7.50;;;;;;;;10414154;28;49475;-62
2024/04/01 16:35:54;;;;;;;;;26.50;8.75;;;;;;;;10500671;27;48658;-62
2024/04/01 16:40:57;;;;;;;;;24.75;11.50;;;;;;;;10494633;27;49419;-62
2024/04/01 16:46:02;;;;;;;;;24.50;9.25;;;;;;;;10499679;28;43014;-63
2024/04/01 16:51:06;;;;;;;;;27.25;9.75;;;;;;;;10494855;28;48459;-63
2024/04/01 16:56:11;;;;;;;;;23.75;8.50;;;;;;;;10499488;27;43635;-63
2024/04/01 17:01:16;;;;;;;;;28.50;8.25;;;;;;;;10489809;28;43075;-63
2024/04/01 17:06:22;;;;;;;;;24.00;10.00;;;;;;;;10456528;28;43224;-63
2024/04/01 17:11:28;;;;;;;;;26.75;7.75;;;;;;;;10462336;28;43116;-63
2024/04/01 17:16:33;;;;;;;;;25.75;7.00;;;;;;;;10498724;28;43377;-63
2024/04/01 17:21:37;;;;;;;;;25.75;10.75;;;;;;;;10476901;28;44130;-64
2024/04/01 17:26:41;;;;;;;;;24.50;9.00;;;;;;;;10462211;28;44102;-63
2024/04/01 17:31:45;;;;;;;;;34.75;14.50;;;;;;;;10465160;28;42969;-63
2024/04/01 17:36:49;;;;;;;;;22.25;9.25;;;;;;;;10498096;28;44023;-63
2024/04/01 17:41:53;;;;;;;;;26.25;10.50;;;;;;;;10493391;28;43003;-64
2024/04/01 17:46:56;;;;;;;;;25.75;10.50;;;;;;;;10497422;28;43069;-64
2024/04/01 17:52:00;;;;;;;;;24.50;11.25;;;;;;;;10491890;27;43153;-63
2024/04/01 17:57:04;;;;;;;;;23.25;9.75;;;;;;;;10480591;28;43613;-63
2024/04/01 18:02:13;;;;;;;;;28.75;10.25;;;;;;;;10480278;28;43946;-63
2024/04/01 18:07:18;;;;;;;;;26.25;9.75;;;;;;;;10454591;28;42973;-63
2024/04/01 18:12:22;;;;;;;;;26.00;10.00;;;;;;;;10468055;28;43021;-63
2024/04/01 18:17:26;;;;;;;;;29.00;12.25;;;;;;;;10495184;28;42986;-64
2024/04/01 18:22:30;;;;;;;;;31.50;12.50;;;;;;;;10476208;28;43784;-64
2024/04/01 18:27:35;;;;;;;;;27.25;9.50;;;;;;;;10476600;28;43270;-63
2024/04/01 18:32:39;;;;;;;;;33.25;12.25;;;;;;;;10474013;28;44925;-64
2024/04/01 18:37:43;;;;;;;;;26.00;10.75;;;;;;;;10453672;28;42960;-64
2024/04/01 18:42:47;;;;;;;;;27.25;14.00;;;;;;;;10470320;28;43175;-64
2024/04/01 18:47:50;;;;;;;;;30.50;10.25;;;;;;;;10462602;28;43329;-64
2024/04/01 18:52:54;;;;;;;;;32.75;14.00;;;;;;;;10481867;28;42977;-63
2024/04/01 18:57:58;;;;;;;;;25.00;11.75;;;;;;;;10469416;28;43020;-64
2024/04/01 19:03:03;;;;;;;;;31.25;14.00;;;;;;;;10482266;27;43919;-64
2024/04/01 19:08:06;;;;;;;;;31.00;10.00;;;;;;;;10494333;28;43271;-64
2024/04/01 19:13:10;;;;;;;;;31.00;16.00;;;;;;;;10492561;28;43769;-64
2024/04/01 19:18:14;;;;;;;;;30.75;13.25;;;;;;;;10494966;28;43591;-64
2024/04/01 19:23:17;;;;;;;;;35.50;14.50;;;;;;;;10483269;28;43699;-64
2024/04/01 19:28:20;;;;;;;;;32.50;13.00;;;;;;;;10478267;27;43027;-64
2024/04/01 19:33:22;;;;;;;;;29.25;13.00;;;;;;;;10482280;28;43672;-63
2024/04/01 19:38:26;;;;;;;;;30.00;12.25;;;;;;;;10463756;28;43649;-63
2024/04/01 19:43:29;;;;;;;;;29.50;11.25;;;;;;;;10483472;28;43058;-63
2024/04/01 19:48:32;;;;;;;;;27.00;11.75;;;;;;;;10500991;28;44066;-63
2024/04/01 19:53:37;;;;;;;;;34.25;15.75;;;;;;;;10496733;28;43583;-63
2024/04/01 19:58:40;;;;;;;;;34.25;13.75;;;;;;;;10501082;28;43827;-63
2024/04/01 20:03:44;;;;;;;;;31.75;18.00;;;;;;;;10496543;28;43315;-63
2024/04/01 20:08:47;;;;;;;;;31.75;13.75;;;;;;;;10500417;28;43576;-63
2024/04/01 20:13:50;;;;;;;;;29.75;12.50;;;;;;;;10495905;28;43580;-63
2024/04/01 20:18:53;;;;;;;;;39.00;15.00;;;;;;;;10484524;28;43208;-64
2024/04/01 20:23:56;;;;;;;;;39.75;16.25;;;;;;;;10472751;28;43521;-63
2024/04/01 20:28:59;;;;;;;;;32.25;16.00;;;;;;;;10459329;28;42978;-63
2024/04/01 20:34:02;;;;;;;;;28.75;11.50;;;;;;;;10432822;28;43214;-63
2024/04/01 20:39:07;;;;;;;;;30.75;15.50;;;;;;;;10431935;28;43026;-63
2024/04/01 20:44:10;;;;;;;;;34.00;14.50;;;;;;;;10461302;28;43345;-63
2024/04/01 20:49:14;;;;;;;;;31.50;15.50;;;;;;;;10439508;28;43084;-63
2024/04/01 20:54:22;;;;;;;;;29.50;12.00;;;;;;;;10461229;28;42996;-63
2024/04/01 20:59:25;;;;;;;;;30.25;12.25;;;;;;;;10474798;28;43208;-63
2024/04/01 21:04:29;;;;;;;;;31.00;11.75;;;;;;;;10467481;28;45223;-63
2024/04/01 21:09:32;;;;;;;;;34.25;15.00;;;;;;;;10472848;28;44977;-63
2024/04/01 21:14:35;;;;;;;;;33.50;15.75;;;;;;;;10467657;28;43587;-63
2024/04/01 21:19:38;;;;;;;;;30.00;12.75;;;;;;;;10473233;28;43041;-63
2024/04/01 21:24:41;;;;;;;;;32.50;14.50;;;;;;;;10430086;28;43037;-64
2024/04/01 21:29:43;;;;;;;;;30.75;13.50;;;;;;;;10431910;28;42978;-64
2024/04/01 21:34:47;;;;;;;;;37.75;17.25;;;;;;;;10431015;28;43007;-63
2024/04/01 21:39:50;;;;;;;;;33.25;15.00;;;;;;;;10431989;28;42931;-64
2024/04/01 21:44:54;;;;;;;;;32.25;13.75;;;;;;;;10430153;28;43029;-64
2024/04/01 21:49:57;;;;;;;;;29.75;15.25;;;;;;;;10406774;28;43010;-64
2024/04/01 21:55:00;;;;;;;;;30.75;13.75;;;;;;;;10388202;28;43018;-64
2024/04/01 22:00:13;;;;;;;;;37.00;20.75;;;;;;;;10387703;28;43590;-62
2024/04/01 22:05:16;;;;;;;;;37.75;18.75;;;;;;;;10384760;28;48385;-62
2024/04/01 22:10:20;;;;;;;;;36.25;17.00;;;;;;;;10387257;28;49334;-63
2024/04/01 22:15:24;;;;;;;;;35.75;18.75;;;;;;;;10391519;28;49665;-62
2024/04/01 22:20:27;;;;;;;;;37.00;16.50;;;;;;;;10388487;28;48528;-63
2024/04/01 22:25:31;;;;;;;;;39.00;19.25;;;;;;;;10394979;28;48601;-63
2024/04/01 22:30:34;;;;;;;;;28.50;13.75;;;;;;;;10381068;28;48965;-63
2024/04/01 22:35:37;;;;;;;;;37.25;17.50;;;;;;;;10399367;28;43505;-63
2024/04/01 22:40:41;;;;;;;;;32.25;16.00;;;;;;;;10395913;28;49623;-62
2024/04/01 22:45:43;;;;;;;;;32.50;16.50;;;;;;;;10387606;28;48719;-63
2024/04/01 22:50:46;;;;;;;;;36.50;18.00;;;;;;;;10386268;28;43298;-62
2024/04/01 22:55:49;;;;;;;;;37.75;17.25;;;;;;;;10387716;28;48971;-65
2024/04/01 23:00:52;;;;;;;;;35.50;17.00;;;;;;;;10385984;28;43560;-63
2024/04/01 23:05:56;;;;;;;;;31.25;12.75;;;;;;;;10389766;28;49528;-67
2024/04/01 23:10:58;;;;;;;;;42.50;16.00;;;;;;;;10386870;28;49994;-60
2024/04/01 23:16:00;;;;;;;;;35.50;13.50;;;;;;;;10386996;28;49892;-63
2024/04/01 23:21:14;;;;;;;;;37.50;13.75;;;;;;;;10388514;28;43016;-64
2024/04/01 23:26:17;;;;;;;;;31.00;11.25;;;;;;;;10387955;28;43757;-64
2024/04/01 23:31:19;;;;;;;;;30.00;13.00;;;;;;;;10392662;28;43023;-66
2024/04/01 23:36:21;;;;;;;;;37.50;13.00;;;;;;;;10453203;28;44210;-63
2024/04/01 23:41:24;;;;;;;;;26.25;11.00;;;;;;;;10453179;28;42910;-62
2024/04/01 23:46:26;;;;;;;;;36.00;14.00;;;;;;;;10452668;28;43059;-62
2024/04/01 23:51:29;;;;;;;;;32.50;10.00;;;;;;;;10455860;28;43792;-63
2024/04/01 23:56:31;;;;;;;;;28.25;12.25;;;;;;;;10451202;28;43011;-62
